createdAt,value
2022-09-23T00:03:23.629Z,92770.31
2022-09-23T00:08:26.048Z,92755.25
2022-09-23T00:13:28.183Z,92762.34
2022-09-23T00:18:30.317Z,92769.78
2022-09-23T00:23:33.259Z,92768.50
2022-09-23T00:28:35.991Z,92758.06
2022-09-23T00:33:38.307Z,92754.38
2022-09-23T00:38:40.398Z,92743.63
2022-09-23T00:43:55.361Z,92748.44
2022-09-23T00:49:02.234Z,92758.72
2022-09-23T00:54:06.836Z,92752.88
2022-09-23T00:59:10.533Z,92740.88
2022-09-23T01:04:14.844Z,92744.34
2022-09-23T01:09:18.128Z,92739.59
2022-09-23T01:14:46.773Z,92748.91
2022-09-23T01:20:16.736Z,92750.97
2022-09-23T01:25:28.253Z,92743.72
2022-09-23T01:30:45.633Z,92744.97
2022-09-23T01:36:02.838Z,92745.28
2022-09-23T01:41:21.118Z,92749.25
2022-09-23T01:46:29.728Z,92740.22
2022-09-23T01:51:37.624Z,92747.81
2022-09-23T01:56:46.326Z,92744.72
2022-09-23T02:01:55.840Z,92751.78
2022-09-23T02:07:04.115Z,92748.59
2022-09-23T02:12:12.856Z,92736.84
2022-09-23T02:17:22.974Z,92738.38
2022-09-23T02:22:35.519Z,92729.75
2022-09-23T02:27:50.307Z,92734.38
2022-09-23T02:32:54.824Z,92741.41
2022-09-23T02:38:09.034Z,92734.84
2022-09-23T02:43:20.303Z,92742.06
2022-09-23T02:48:27.519Z,92734.53
2022-09-23T02:53:33.920Z,92738.81
2022-09-23T02:58:37.207Z,92733.13
2022-09-23T03:04:17.810Z,92730.38
2022-09-23T03:09:27.297Z,92706.03
2022-09-23T03:14:41.784Z,92721.59
2022-09-23T03:19:53.987Z,92714.63
2022-09-23T03:25:02.655Z,92720.78
2022-09-23T03:30:07.297Z,92723.03
2022-09-23T03:35:09.922Z,92710.78
2022-09-23T03:40:12.093Z,92729.75
2022-09-23T03:45:18.686Z,92728.28
2022-09-23T03:50:21.427Z,92738.00
2022-09-23T03:55:23.630Z,92733.69
2022-09-23T04:00:26.775Z,92720.06
2022-09-23T04:05:30.482Z,92728.38
2022-09-23T04:10:32.586Z,92740.28
2022-09-23T04:15:34.866Z,92727.53
2022-09-23T04:20:39.413Z,92713.75
2022-09-23T04:25:47.894Z,92721.34
2022-09-23T04:30:54.881Z,92719.50
2022-09-23T04:35:57.027Z,92722.78
2022-09-23T04:40:59.453Z,92715.78
2022-09-23T04:46:04.254Z,92728.31
2022-09-23T04:51:12.318Z,92722.69
2022-09-23T04:56:20.144Z,92734.63
2022-09-23T05:01:25.424Z,92716.09
2022-09-23T05:06:27.653Z,92739.41
2022-09-23T05:11:31.748Z,92720.25
2022-09-23T05:16:34.121Z,92756.78
2022-09-23T05:21:37.878Z,92756.78
2022-09-23T05:26:40.164Z,92763.59
2022-09-23T05:31:42.313Z,92765.94
2022-09-23T05:36:44.777Z,92759.72
2022-09-23T05:41:46.933Z,92769.16
2022-09-23T05:46:49.341Z,92781.41
2022-09-23T05:51:51.565Z,92783.13
2022-09-23T05:56:53.662Z,92783.19
2022-09-23T06:01:56.858Z,92781.50
2022-09-23T06:07:02.913Z,92731.41
2022-09-23T06:12:06.490Z,92775.78
2022-09-23T06:17:08.769Z,92772.00
2022-09-23T06:22:12.004Z,92768.38
2022-09-23T06:27:14.111Z,92765.22
2022-09-23T06:32:16.759Z,92742.75
2022-09-23T06:37:20.644Z,92752.75
2022-09-23T06:42:23.137Z,92773.41
2022-09-23T06:47:25.332Z,92781.19
2022-09-23T06:52:28.683Z,92775.47
2022-09-23T06:57:31.674Z,92783.06
2022-09-23T07:02:33.986Z,92776.59
2022-09-23T07:07:37.578Z,92748.94
2022-09-23T07:12:39.761Z,92768.72
2022-09-23T07:17:43.230Z,92766.13
2022-09-23T07:22:52.654Z,92768.38
2022-09-23T07:27:56.222Z,92781.16
2022-09-23T07:32:58.295Z,92773.75
2022-09-23T07:38:00.876Z,92770.41
2022-09-23T07:43:04.743Z,92760.66
2022-09-23T07:48:06.947Z,92758.19
2022-09-23T07:53:09.170Z,92780.50
2022-09-23T07:58:11.330Z,92757.47
2022-09-23T08:03:14.913Z,92770.16
2022-09-23T08:08:17.439Z,92779.03
2022-09-23T08:13:19.569Z,92783.78
2022-09-23T08:18:21.843Z,92784.59
2022-09-23T08:23:24.238Z,92766.72
2022-09-23T08:28:27.286Z,92780.56
2022-09-23T08:33:29.823Z,92769.88
2022-09-23T08:38:32.175Z,92777.53
2022-09-23T08:43:36.593Z,92782.13
2022-09-23T08:48:44.490Z,92784.19
2022-09-23T08:53:47.706Z,92769.50
2022-09-23T08:59:07.973Z,92768.25
2022-09-23T09:04:22.229Z,92759.28
2022-09-23T09:09:30.453Z,92757.00
2022-09-23T09:15:01.335Z,92753.31
2022-09-23T09:20:18.974Z,92752.56
2022-09-23T09:25:34.143Z,92750.47
2022-09-23T09:30:36.910Z,92697.38
2022-09-23T09:36:01.913Z,92742.44
2022-09-23T09:41:18.425Z,92729.50
2022-09-23T09:46:36.557Z,92731.53
2022-09-23T09:51:41.320Z,92725.78
2022-09-23T09:56:44.871Z,92728.00
2022-09-23T10:01:47.408Z,92713.66
2022-09-23T10:07:13.554Z,92743.00
2022-09-23T10:12:19.294Z,92749.75
2022-09-23T10:17:34.104Z,92749.19
2022-09-23T10:22:39.856Z,92708.31
2022-09-23T10:27:42.017Z,92726.91
2022-09-23T10:32:45.233Z,92681.31
2022-09-23T10:37:53.285Z,92721.16
2022-09-23T10:43:58.212Z,92711.38
2022-09-23T10:49:10.150Z,92699.84
2022-09-23T10:54:33.715Z,92686.66
2022-09-23T10:59:57.698Z,92692.38
2022-09-23T11:05:12.093Z,92691.44
2022-09-23T11:10:35.332Z,92683.44
2022-09-23T11:16:07.216Z,92680.19
2022-09-23T11:21:40.135Z,92680.47
2022-09-23T11:26:57.837Z,92674.75
2022-09-23T11:32:48.119Z,92660.41
2022-09-23T11:38:06.639Z,92643.16
2022-09-23T11:43:26.873Z,92645.56
2022-09-23T11:48:51.105Z,92644.59
2022-09-23T11:54:10.011Z,92645.78
2022-09-23T11:59:40.522Z,92642.69
2022-09-23T12:04:57.096Z,92635.56
2022-09-23T12:10:06.233Z,92633.59
2022-09-23T12:15:20.803Z,92625.94
2022-09-23T12:20:56.135Z,92626.75
2022-09-23T12:26:03.138Z,92626.75
2022-09-23T12:31:11.368Z,92627.50
2022-09-23T12:36:13.771Z,92630.31
2022-09-23T12:41:27.423Z,92618.91
2022-09-23T12:46:29.616Z,92622.00
2022-09-23T12:51:34.820Z,92577.75
2022-09-23T12:56:36.838Z,92623.09
2022-09-23T13:01:39.439Z,92615.44
2022-09-23T13:06:50.834Z,92609.03
2022-09-23T13:12:01.730Z,92608.84
2022-09-23T13:17:04.644Z,92577.66
2022-09-23T13:22:24.358Z,92574.97
2022-09-23T13:27:33.929Z,92583.69
2022-09-23T13:32:41.941Z,92575.47
2022-09-23T13:37:56.984Z,92562.72
2022-09-23T13:43:32.149Z,92561.03
2022-09-23T13:48:43.679Z,92570.69
2022-09-23T13:53:53.759Z,92550.66
2022-09-23T13:59:26.526Z,92555.16
2022-09-23T14:04:28.877Z,92552.03
2022-09-23T14:09:33.565Z,92536.66
2022-09-23T14:14:38.555Z,92536.88
2022-09-23T14:19:42.648Z,92521.53
2022-09-23T14:24:44.910Z,92527.28
2022-09-23T14:29:49.477Z,92522.09
2022-09-23T14:35:00.870Z,92544.59
2022-09-23T14:40:09.248Z,92540.50
2022-09-23T14:45:30.245Z,92523.94
2022-09-23T14:50:48.673Z,92530.75
2022-09-23T14:56:07.295Z,92529.31
2022-09-23T15:01:32.481Z,92529.41
2022-09-23T15:06:40.516Z,92539.03
2022-09-23T15:11:42.769Z,92527.81
2022-09-23T15:16:47.467Z,92536.69
2022-09-23T15:21:53.735Z,92517.09
2022-09-23T15:26:58.138Z,92517.97
2022-09-23T15:32:00.541Z,92525.59
2022-09-23T15:37:03.241Z,92521.84
2022-09-23T15:42:07.273Z,92502.06
2022-09-23T15:47:18.976Z,92518.38
2022-09-23T15:52:22.942Z,92520.97
2022-09-23T15:57:26.126Z,92504.91
2022-09-23T16:02:29.021Z,92523.19
2022-09-23T16:07:31.225Z,92527.47
2022-09-23T16:12:33.401Z,92505.91
2022-09-23T16:17:36.711Z,92512.16
2022-09-23T16:22:39.530Z,92523.00
2022-09-23T16:27:41.804Z,92498.81
2022-09-23T16:32:44.222Z,92518.00
2022-09-23T16:37:49.129Z,92518.97
2022-09-23T16:42:55.067Z,92504.06
2022-09-23T16:47:58.010Z,92522.56
2022-09-23T16:53:00.426Z,92523.19
2022-09-23T16:58:05.292Z,92524.97
2022-09-23T17:03:31.130Z,92523.47
2022-09-23T17:08:33.778Z,92511.84
2022-09-23T17:13:35.883Z,92521.63
2022-09-23T17:18:41.290Z,92505.19
2022-09-23T17:23:43.483Z,92514.19
2022-09-23T17:28:45.735Z,92502.00
2022-09-23T17:33:48.894Z,92489.94
2022-09-23T17:38:54.306Z,92516.09
2022-09-23T17:43:58.706Z,92520.16
2022-09-23T17:49:01.855Z,92498.06
2022-09-23T17:54:04.221Z,92470.66
2022-09-23T17:59:06.529Z,92491.00
2022-09-23T18:04:08.842Z,92476.63
2022-09-23T18:09:11.414Z,92482.69
2022-09-23T18:14:22.242Z,92457.75
2022-09-23T18:19:24.989Z,92474.50
2022-09-23T18:24:32.820Z,92486.59
2022-09-23T18:29:36.291Z,92472.94
2022-09-23T18:34:38.468Z,92454.41
2022-09-23T18:39:41.886Z,92450.16
2022-09-23T18:44:44.706Z,92454.59
2022-09-23T18:50:05.377Z,92447.19
2022-09-23T18:55:08.224Z,92446.09
2022-09-23T19:00:10.989Z,92468.00
2022-09-23T19:05:13.182Z,92423.84
2022-09-23T19:10:15.457Z,92444.81
2022-09-23T19:15:20.163Z,92450.34
2022-09-23T19:20:22.858Z,92481.50
2022-09-23T19:25:25.054Z,92482.69
2022-09-23T19:30:27.194Z,92493.34
2022-09-23T19:35:29.623Z,92501.38
2022-09-23T19:40:31.983Z,92472.09
2022-09-23T19:45:34.429Z,92479.44
2022-09-23T19:50:40.055Z,92490.41
2022-09-23T19:55:44.397Z,92478.59
2022-09-23T20:00:46.563Z,92501.94
2022-09-23T20:05:58.267Z,92503.03
2022-09-23T20:11:15.656Z,92450.47
2022-09-23T20:16:19.766Z,92495.41
2022-09-23T20:21:22.196Z,92468.75
2022-09-23T20:26:53.843Z,92473.28
2022-09-23T20:31:57.117Z,92505.22
2022-09-23T20:37:00.329Z,92485.31
2022-09-23T20:42:02.964Z,92481.22
2022-09-23T20:47:05.151Z,92508.94
2022-09-23T20:52:07.286Z,92504.88
2022-09-23T20:57:12.176Z,92497.88
2022-09-23T21:02:14.535Z,92468.22
2022-09-23T21:07:17.506Z,92456.16
2022-09-23T21:12:19.703Z,92485.16
2022-09-23T21:17:21.934Z,92487.06
2022-09-23T21:22:24.106Z,92490.38
2022-09-23T21:27:27.210Z,92487.75
2022-09-23T21:32:29.498Z,92470.41
2022-09-23T21:37:31.840Z,92482.44
2022-09-23T21:42:34.148Z,92485.97
2022-09-23T21:47:38.475Z,92466.19
2022-09-23T21:52:40.616Z,92485.31
2022-09-23T21:57:44.256Z,92481.97
2022-09-23T22:02:46.383Z,92488.81
2022-09-23T22:07:48.517Z,92496.06
2022-09-23T22:12:50.631Z,92497.53
2022-09-23T22:17:52.948Z,92474.94
2022-09-23T22:22:56.038Z,92492.03
2022-09-23T22:28:16.566Z,92499.03
2022-09-23T22:33:18.658Z,92484.00
2022-09-23T22:38:20.772Z,92455.63
2022-09-23T22:43:23.241Z,92450.88
2022-09-23T22:48:25.905Z,92466.28
2022-09-23T22:53:28.488Z,92434.84
2022-09-23T22:58:32.512Z,92440.94
2022-09-23T23:03:35.689Z,92463.44
2022-09-23T23:08:37.919Z,92460.47
2022-09-23T23:13:41.997Z,92446.69
2022-09-23T23:18:45.564Z,92449.59
2022-09-23T23:23:50.597Z,92442.53
2022-09-23T23:28:54.183Z,92430.63
2022-09-23T23:33:56.365Z,92410.34
2022-09-23T23:38:59.506Z,92411.59
2022-09-23T23:44:02.242Z,92412.78
2022-09-23T23:49:05.037Z,92412.88
2022-09-23T23:54:07.448Z,92410.69
2022-09-23T23:59:09.692Z,92388.41
